Dieses Jahr (2019) konnten wir eine sehr erfolgreiche Flugausbildung durchführen.
Drei Flugschüler haben ihren ersten Alleinflug gemacht und somit den ersten Ausbildungsabschnitt beendet.
Auch im Bereich Motorflug hat sich etwas getan. Bernd Ewert hat seine Klassenberechtigung TMG (Motorsegler) erworben.

Herzlichen Glückwunsch !!

 

Alleinflug von Florian Götzl am 30. März 2019



Alleinflug von Claus Scholz (rechts) am 05. Mai 2019



Alleinflug von Fabian Kälberer am 30. Juni 2019



Fluglehrer (links) und Flugschüler

WebCam

  
Kamera Halle
Kamera Vorfeld

GPS Triangle WM Sports Class

AeroClub Göppingen-Salach e.V.
Ausrichter der Modellflug
GPS Triangle-WM 2020

Wetter EDDS

METAR

EDDS 172250Z 19004KT 130V220 9999 SCT013 03/02 Q1004 =
AMD EDDS 172128Z 1721/1818 20004KT 8000 BKN008 BECMG 1721/1723 FEW008 BKN014 BECMG 1723/1801 SCT014 BKN030 TEMPO 1811/1815 21010KT


TAF

AMD EDDS 172128Z 1721/1818 20004KT 8000 BKN008 BECMG 1721/1723 FEW008 BKN014 BECMG 1723/1801 SCT014 BKN030 TEMPO 1811/1815 21010KT =


SR/SS

06:33 / 15:39 UTC
(EDSO 18-11-2019)